Time;durP1;ratioP1;P1;durP2;ratioP2;P2;SDS_P1;SDS_P2;PMS_P1;PMS_P2;Temp;Humidity;BMP_temperature;BMP_pressure;BME280_temperature;BME280_humidity;BME280_pressure;Samples;Min_cycle;Max_cycle;Signal;HPM_P1;HPM_P2
2023/08/02 00:02:11;;;;;;;1.07;1.07;;;13.00;99.90;;;;;;5054460;28;20699;-70
2023/08/02 00:04:37;;;;;;;0.60;0.60;;;12.90;99.90;;;;;;5054658;28;20503;-69
2023/08/02 00:07:04;;;;;;;0.40;0.40;;;12.60;99.90;;;;;;5054804;28;20166;-69
2023/08/02 00:09:29;;;;;;;0.40;0.40;;;12.80;99.90;;;;;;5054571;28;20247;-69
2023/08/02 00:11:56;;;;;;;1.13;1.03;;;12.70;99.90;;;;;;5054358;28;20837;-70
2023/08/02 00:14:21;;;;;;;0.40;0.40;;;12.40;99.90;;;;;;5054592;28;20751;-69
2023/08/02 00:16:47;;;;;;;0.60;0.60;;;12.70;99.90;;;;;;5054393;28;20426;-70
2023/08/02 00:19:12;;;;;;;1.13;1.10;;;12.70;99.90;;;;;;5054235;28;20166;-70
2023/08/02 00:21:38;;;;;;;4.90;1.13;;;12.70;99.90;;;;;;5054173;28;20578;-69
2023/08/02 00:24:04;;;;;;;2.10;1.80;;;12.70;99.90;;;;;;5054307;28;20189;-69
2023/08/02 00:26:29;;;;;;;0.50;0.50;;;12.60;99.90;;;;;;5054138;28;20184;-70
2023/08/02 00:28:55;;;;;;;0.50;0.50;;;12.60;99.90;;;;;;5053814;28;20508;-70
2023/08/02 00:31:21;;;;;;;0.50;0.50;;;12.60;99.90;;;;;;5053895;28;20184;-70
2023/08/02 00:33:46;;;;;;;1.30;1.20;;;12.50;99.90;;;;;;5054198;28;20170;-70
2023/08/02 00:36:12;;;;;;;1.33;0.70;;;;;;;;;;5054220;28;20570;-70
2023/08/02 00:38:38;;;;;;;1.00;0.90;;;12.20;99.90;;;;;;5054052;28;20178;-70
2023/08/02 00:41:05;;;;;;;1.00;1.00;;;12.50;99.90;;;;;;5053762;28;20493;-70
2023/08/02 00:43:41;;;;;;;1.13;1.13;;;12.40;99.90;;;;;;5053971;28;20170;-70
2023/08/02 00:46:12;;;;;;;1.20;1.17;;;12.40;99.90;;;;;;5054117;28;20413;-70
2023/08/02 00:48:38;;;;;;;0.70;0.50;;;12.40;99.90;;;;;;5053791;28;20447;-70
2023/08/02 00:51:07;;;;;;;0.43;0.43;;;12.70;99.90;;;;;;5053412;28;20506;-70
2023/08/02 00:53:32;;;;;;;1.23;1.13;;;12.30;99.90;;;;;;5053853;28;20404;-70
2023/08/02 00:55:58;;;;;;;0.60;0.60;;;12.50;99.90;;;;;;5053650;28;20774;-70
2023/08/02 00:58:24;;;;;;;1.20;1.20;;;12.50;99.90;;;;;;5054079;28;20174;-70
2023/08/02 01:00:49;;;;;;;1.33;1.17;;;12.60;99.90;;;;;;5053349;28;20607;-69
2023/08/02 01:03:15;;;;;;;0.40;0.40;;;12.90;99.90;;;;;;5053634;28;20185;-69
2023/08/02 01:05:46;;;;;;;0.67;0.67;;;12.80;99.90;;;;;;5053615;28;20175;-69
2023/08/02 01:08:19;;;;;;;1.07;1.07;;;12.90;99.90;;;;;;5053652;28;20747;-70
2023/08/02 01:10:52;;;;;;;0.60;0.60;;;13.00;99.90;;;;;;5053271;28;20435;-71
2023/08/02 01:13:19;;;;;;;2.17;2.07;;;13.00;99.90;;;;;;5053645;28;20918;-70
2023/08/02 01:15:47;;;;;;;5.80;4.77;;;13.10;99.90;;;;;;5053422;28;20491;-70
2023/08/02 01:18:13;;;;;;;3.40;2.33;;;13.10;99.90;;;;;;5053308;28;20408;-70
2023/08/02 01:20:39;;;;;;;2.80;2.50;;;13.20;99.90;;;;;;5053257;28;20428;-71
2023/08/02 01:23:04;;;;;;;1.10;1.10;;;13.10;99.90;;;;;;5053417;28;20416;-70
2023/08/02 01:25:32;;;;;;;1.40;1.30;;;13.30;99.90;;;;;;5053227;28;20265;-70
2023/08/02 01:28:02;;;;;;;1.20;1.00;;;13.40;99.90;;;;;;5053200;28;20173;-70
2023/08/02 01:30:33;;;;;;;2.17;2.00;;;13.50;99.90;;;;;;5053443;28;20427;-70
2023/08/02 01:32:59;;;;;;;7.43;3.43;;;13.50;99.90;;;;;;5053074;28;20400;-70
2023/08/02 01:35:27;;;;;;;3.70;1.93;;;13.50;99.90;;;;;;5053215;28;20412;-69
2023/08/02 01:37:53;;;;;;;4.27;3.27;;;13.50;99.90;;;;;;5053343;28;20405;-70
2023/08/02 01:40:19;;;;;;;1.43;1.33;;;13.50;99.90;;;;;;5054354;28;20429;-70
2023/08/02 01:42:44;;;;;;;2.10;2.00;;;13.50;99.90;;;;;;5057373;28;20931;-70
2023/08/02 01:45:11;;;;;;;3.23;2.67;;;13.60;99.90;;;;;;5057409;28;20170;-71
2023/08/02 01:47:37;;;;;;;3.20;2.90;;;13.50;99.90;;;;;;5057310;28;20166;-70
2023/08/02 01:50:02;;;;;;;3.30;2.80;;;13.60;99.90;;;;;;5056934;28;20505;-69
2023/08/02 01:52:28;;;;;;;2.87;2.67;;;13.70;99.90;;;;;;5057066;28;20533;-71
2023/08/02 01:54:54;;;;;;;2.10;1.90;;;13.70;99.90;;;;;;5057316;28;20170;-70
2023/08/02 01:57:19;;;;;;;3.47;3.17;;;13.60;99.90;;;;;;5057247;28;20163;-70
2023/08/02 01:59:45;;;;;;;1.67;1.57;;;13.70;99.90;;;;;;5055770;28;20205;-69
2023/08/02 02:02:10;;;;;;;2.93;0.93;;;13.80;99.90;;;;;;5056777;28;20173;-69
2023/08/02 02:04:36;;;;;;;1.10;1.00;;;13.70;99.90;;;;;;5056987;28;20227;-71
2023/08/02 02:07:02;;;;;;;1.70;1.60;;;13.80;99.90;;;;;;5057022;28;20178;-70
2023/08/02 02:09:28;;;;;;;1.33;1.23;;;;;;;;;;5057024;28;21047;-70
2023/08/02 02:11:54;;;;;;;1.10;1.10;;;13.70;99.90;;;;;;5056685;28;20216;-70
2023/08/02 02:14:19;;;;;;;1.07;1.07;;;13.70;99.90;;;;;;5057084;28;20753;-71
2023/08/02 02:16:45;;;;;;;1.23;1.23;;;13.70;99.90;;;;;;5056822;28;20166;-70
2023/08/02 02:19:11;;;;;;;1.33;1.30;;;13.40;99.90;;;;;;5056669;28;20178;-69
2023/08/02 02:21:36;;;;;;;0.87;0.50;;;13.70;99.90;;;;;;5056391;28;20178;-70
2023/08/02 02:24:02;;;;;;;0.93;0.77;;;13.90;99.90;;;;;;5056745;28;20247;-70
2023/08/02 02:26:28;;;;;;;1.17;1.07;;;13.80;99.90;;;;;;5056587;28;20547;-70
2023/08/02 02:28:54;;;;;;;3.07;2.87;;;13.90;99.90;;;;;;5056608;28;20453;-70
2023/08/02 02:31:19;;;;;;;1.00;0.93;;;13.80;99.90;;;;;;5056192;28;20261;-69
2023/08/02 02:33:45;;;;;;;1.13;1.13;;;13.90;99.90;;;;;;5055074;28;20228;-70
2023/08/02 02:36:11;;;;;;;4.90;2.10;;;13.90;99.90;;;;;;5056199;28;20170;-71
2023/08/02 02:38:36;;;;;;;1.90;1.80;;;13.90;99.90;;;;;;5056264;28;20188;-70
2023/08/02 02:41:02;;;;;;;2.00;1.43;;;14.00;99.90;;;;;;5056040;28;20201;-71
2023/08/02 02:43:28;;;;;;;2.33;0.90;;;14.00;99.90;;;;;;5056391;28;20563;-71
2023/08/02 02:45:54;;;;;;;1.30;1.20;;;14.00;99.90;;;;;;5056557;28;20240;-69
2023/08/02 02:48:19;;;;;;;1.00;1.00;;;14.00;99.90;;;;;;5056167;28;20452;-70
2023/08/02 02:50:45;;;;;;;1.90;1.80;;;14.00;99.90;;;;;;5055412;28;20214;-69
2023/08/02 02:53:11;;;;;;;2.07;1.30;;;14.00;99.90;;;;;;5055976;28;20183;-70
2023/08/02 02:55:36;;;;;;;0.90;0.90;;;14.00;99.90;;;;;;5056084;28;20697;-69
2023/08/02 02:58:02;;;;;;;2.33;1.17;;;14.10;99.90;;;;;;5056091;28;20178;-71
2023/08/02 03:00:28;;;;;;;2.57;2.47;;;14.10;99.90;;;;;;5055905;28;20194;-70
2023/08/02 03:02:53;;;;;;;3.73;3.07;;;14.10;99.90;;;;;;5055763;28;20562;-69
2023/08/02 03:05:19;;;;;;;1.70;1.27;;;14.10;99.90;;;;;;5055637;28;20743;-69
2023/08/02 03:07:46;;;;;;;2.30;2.13;;;14.20;99.90;;;;;;5055777;28;20170;-71
2023/08/02 03:10:12;;;;;;;3.30;3.00;;;14.30;99.90;;;;;;5055834;28;20190;-70
2023/08/02 03:12:37;;;;;;;1.00;1.00;;;14.30;99.90;;;;;;5055569;28;20398;-70
2023/08/02 03:15:03;;;;;;;1.80;1.67;;;14.30;99.90;;;;;;5055563;28;20170;-69
2023/08/02 03:17:29;;;;;;;1.20;1.10;;;14.30;99.90;;;;;;5055745;28;20663;-70
2023/08/02 03:19:54;;;;;;;5.90;1.60;;;14.30;99.90;;;;;;5055459;28;20420;-70
2023/08/02 03:22:20;;;;;;;1.33;1.23;;;14.30;99.90;;;;;;5055450;28;20176;-69
2023/08/02 03:24:46;;;;;;;3.37;2.17;;;14.30;99.90;;;;;;5054756;28;20170;-70
2023/08/02 03:27:11;;;;;;;1.03;1.03;;;14.20;99.90;;;;;;5055349;28;20186;-70
2023/08/02 03:29:37;;;;;;;1.93;1.83;;;14.30;99.90;;;;;;5055049;28;20209;-69
2023/08/02 03:32:03;;;;;;;2.53;2.00;;;14.20;99.90;;;;;;5055130;28;20174;-70
2023/08/02 03:34:29;;;;;;;2.53;2.33;;;14.20;99.90;;;;;;5055207;28;20174;-69
2023/08/02 03:36:54;;;;;;;1.70;1.60;;;14.20;99.90;;;;;;5055279;28;20396;-69
2023/08/02 03:39:20;;;;;;;2.90;2.57;;;14.30;99.90;;;;;;5055034;28;20193;-70
2023/08/02 03:41:45;;;;;;;1.87;1.73;;;14.30;99.90;;;;;;5054801;28;20174;-70
2023/08/02 03:44:11;;;;;;;1.97;1.83;;;14.20;99.90;;;;;;5055020;28;20174;-70
2023/08/02 03:46:37;;;;;;;1.63;1.53;;;14.30;99.90;;;;;;5055059;28;20175;-70
2023/08/02 03:49:02;;;;;;;1.73;1.63;;;14.10;99.90;;;;;;5054810;28;20201;-71
2023/08/02 03:51:28;;;;;;;0.83;0.80;;;14.30;99.90;;;;;;5054845;28;20150;-69
2023/08/02 03:53:54;;;;;;;2.30;2.10;;;14.40;99.90;;;;;;5054931;28;20205;-71
2023/08/02 03:56:19;;;;;;;1.97;0.70;;;14.40;99.90;;;;;;5054948;28;20252;-70
2023/08/02 03:58:45;;;;;;;2.37;2.17;;;14.40;99.90;;;;;;5054750;28;20174;-69
2023/08/02 04:01:10;;;;;;;1.93;1.80;;;14.40;99.90;;;;;;5054495;28;20686;-70
2023/08/02 04:03:36;;;;;;;1.67;1.57;;;14.50;99.90;;;;;;5054156;28;20170;-70
2023/08/02 04:06:02;;;;;;;3.47;3.17;;;14.40;99.90;;;;;;5054687;28;20306;-70
2023/08/02 04:08:27;;;;;;;2.73;2.53;;;14.40;99.90;;;;;;5054615;28;20229;-71
2023/08/02 04:10:53;;;;;;;3.23;3.07;;;14.40;99.90;;;;;;5054401;28;20241;-70
2023/08/02 04:13:18;;;;;;;1.67;1.57;;;14.40;99.90;;;;;;5054852;28;20607;-70
2023/08/02 04:15:44;;;;;;;3.53;3.20;;;14.40;99.90;;;;;;5054675;28;20228;-69
2023/08/02 04:18:09;;;;;;;4.90;4.53;;;14.50;99.90;;;;;;5054265;28;20537;-70
2023/08/02 04:20:40;;;;;;;5.20;4.67;;;14.50;99.90;;;;;;5054250;28;20201;-70
2023/08/02 04:23:06;;;;;;;4.40;4.10;;;14.60;99.90;;;;;;5054441;28;20537;-70
2023/08/02 04:25:32;;;;;;;2.77;2.63;;;14.60;99.90;;;;;;5054322;28;20401;-70
2023/08/02 04:27:57;;;;;;;1.67;1.47;;;14.60;99.90;;;;;;5054065;28;20224;-70
2023/08/02 04:30:23;;;;;;;4.73;4.43;;;14.60;99.90;;;;;;5054281;28;20182;-70
2023/08/02 04:32:50;;;;;;;1.17;1.13;;;14.60;99.90;;;;;;5053980;28;20178;-69
2023/08/02 04:35:16;;;;;;;2.23;2.10;;;14.50;99.90;;;;;;5054041;28;20162;-70
2023/08/02 04:37:42;;;;;;;2.07;1.97;;;14.50;99.90;;;;;;5054146;28;20400;-71
2023/08/02 04:40:08;;;;;;;1.03;1.03;;;14.60;99.90;;;;;;5053921;28;20231;-70
2023/08/02 04:42:33;;;;;;;2.20;1.97;;;14.60;99.90;;;;;;5053855;28;20228;-70
2023/08/02 04:44:59;;;;;;;2.57;2.40;;;14.60;99.90;;;;;;5052766;28;20787;-71
2023/08/02 04:47:25;;;;;;;3.90;3.70;;;14.70;99.90;;;;;;5053596;28;20613;-71
2023/08/02 04:49:50;;;;;;;1.13;1.13;;;14.70;99.90;;;;;;5053517;28;20260;-71
2023/08/02 04:52:16;;;;;;;1.03;1.03;;;14.70;99.90;;;;;;5053648;28;20208;-71
2023/08/02 04:54:41;;;;;;;1.50;1.50;;;14.70;99.90;;;;;;5053779;28;20193;-70
2023/08/02 04:57:07;;;;;;;1.23;1.23;;;14.70;99.90;;;;;;5053754;28;20173;-71
2023/08/02 04:59:32;;;;;;;4.83;1.80;;;14.70;99.90;;;;;;5053653;28;20227;-70
2023/08/02 05:01:58;;;;;;;2.17;2.07;;;14.70;99.90;;;;;;5053780;28;20516;-71
2023/08/02 05:04:24;;;;;;;2.30;1.93;;;14.80;99.90;;;;;;5053788;28;20173;-70
2023/08/02 05:06:49;;;;;;;1.37;1.27;;;14.90;99.90;;;;;;5054171;28;20223;-71
2023/08/02 05:09:15;;;;;;;0.87;0.87;;;14.80;99.90;;;;;;5053567;28;20217;-71
2023/08/02 05:11:41;;;;;;;0.60;0.60;;;14.90;99.90;;;;;;5053450;28;20174;-70
2023/08/02 05:14:06;;;;;;;0.90;0.90;;;14.80;99.90;;;;;;5053574;28;20177;-70
2023/08/02 05:16:32;;;;;;;0.70;0.60;;;14.90;99.90;;;;;;5053718;28;20162;-70
2023/08/02 05:18:57;;;;;;;0.70;0.70;;;14.90;99.90;;;;;;5053467;28;20663;-71
2023/08/02 05:21:23;;;;;;;1.10;0.93;;;15.00;99.90;;;;;;5053444;28;20652;-70
2023/08/02 05:23:49;;;;;;;2.87;2.00;;;15.10;99.90;;;;;;5053305;28;20191;-71
2023/08/02 05:26:15;;;;;;;0.87;0.63;;;15.10;99.90;;;;;;5053337;28;20168;-71
2023/08/02 05:28:41;;;;;;;0.60;0.60;;;15.00;99.90;;;;;;5053380;28;20916;-71
2023/08/02 05:31:13;;;;;;;0.90;0.90;;;15.00;99.90;;;;;;5053194;28;20260;-70
2023/08/02 05:33:40;;;;;;;0.67;0.57;;;15.00;99.90;;;;;;5053727;28;20169;-70
2023/08/02 05:36:06;;;;;;;1.80;1.23;;;15.10;99.90;;;;;;5053681;28;20406;-71
2023/08/02 05:38:34;;;;;;;1.90;1.27;;;15.10;99.90;;;;;;5053651;28;20773;-69
2023/08/02 05:41:03;;;;;;;2.17;2.07;;;14.90;99.90;;;;;;5051564;28;20436;-70
2023/08/02 05:43:29;;;;;;;3.90;3.70;;;15.00;99.90;;;;;;5051174;28;20412;-71
2023/08/02 05:45:56;;;;;;;3.07;2.43;;;15.10;99.90;;;;;;5052699;28;20458;-70
2023/08/02 05:48:21;;;;;;;1.93;1.57;;;15.10;99.90;;;;;;5053232;28;20446;-70
2023/08/02 05:50:48;;;;;;;1.37;1.27;;;15.10;99.90;;;;;;5052573;28;20547;-71
2023/08/02 05:53:15;;;;;;;0.93;0.93;;;15.10;99.90;;;;;;5051400;28;20170;-71
2023/08/02 05:55:41;;;;;;;0.87;0.87;;;15.20;99.90;;;;;;5052891;28;20965;-69
2023/08/02 05:58:07;;;;;;;1.00;1.00;;;15.20;99.90;;;;;;5052909;28;20411;-71
2023/08/02 06:00:33;;;;;;;0.83;0.83;;;15.10;99.90;;;;;;5052910;28;20432;-70
2023/08/02 06:02:58;;;;;;;1.13;0.87;;;15.20;99.90;;;;;;5053216;28;20231;-70
2023/08/02 06:05:24;;;;;;;4.50;2.10;;;15.20;99.90;;;;;;5052940;28;20201;-69
2023/08/02 06:07:50;;;;;;;1.50;1.40;;;15.20;99.90;;;;;;5052971;28;20519;-70
2023/08/02 06:10:15;;;;;;;1.37;1.27;;;15.30;99.90;;;;;;5052954;28;20201;-69
2023/08/02 06:12:42;;;;;;;1.63;1.53;;;15.30;99.90;;;;;;5053009;28;20304;-70
2023/08/02 06:15:08;;;;;;;1.67;1.40;;;15.30;99.90;;;;;;5053223;28;20166;-70
2023/08/02 06:17:34;;;;;;;1.33;1.13;;;15.30;99.90;;;;;;5053329;28;20457;-70
2023/08/02 06:20:00;;;;;;;0.80;0.80;;;15.40;99.90;;;;;;5052518;28;20509;-70
2023/08/02 06:22:26;;;;;;;1.37;1.27;;;15.50;99.90;;;;;;5052670;28;20405;-70
2023/08/02 06:24:51;;;;;;;1.20;1.20;;;15.50;99.90;;;;;;5052076;28;20685;-69
2023/08/02 06:27:17;;;;;;;1.73;1.63;;;15.50;99.90;;;;;;5055694;28;20412;-69
2023/08/02 06:29:42;;;;;;;1.23;1.13;;;15.60;99.90;;;;;;5056628;28;20202;-69
2023/08/02 06:32:08;;;;;;;1.70;1.07;;;15.60;99.90;;;;;;5056254;28;20195;-69
2023/08/02 06:34:34;;;;;;;0.70;0.70;;;15.60;99.90;;;;;;5056392;28;20198;-69
2023/08/02 06:36:59;;;;;;;2.37;2.20;;;15.60;99.90;;;;;;5056534;28;20166;-69
2023/08/02 06:39:25;;;;;;;1.83;1.63;;;16.00;99.90;;;;;;5055961;28;20213;-70
2023/08/02 06:41:50;;;;;;;2.13;1.93;;;15.70;99.90;;;;;;5056008;28;20524;-70
2023/08/02 06:44:16;;;;;;;1.27;1.17;;;15.70;99.90;;;;;;5056053;28;20240;-70
2023/08/02 06:46:42;;;;;;;3.00;2.90;;;15.70;99.90;;;;;;5055489;28;20166;-69
2023/08/02 06:49:07;;;;;;;0.90;0.90;;;16.00;99.90;;;;;;5056339;28;20209;-69
2023/08/02 06:51:33;;;;;;;1.80;1.60;;;15.80;99.90;;;;;;5056309;28;20505;-68
2023/08/02 06:53:58;;;;;;;3.03;2.33;;;15.90;99.90;;;;;;5056377;28;20650;-67
2023/08/02 06:56:24;;;;;;;0.70;0.70;;;15.90;99.90;;;;;;5056253;28;20223;-68
2023/08/02 06:58:50;;;;;;;4.50;2.87;;;15.90;99.90;;;;;;5056023;28;20174;-69
2023/08/02 07:01:21;;;;;;;1.60;1.50;;;16.00;99.90;;;;;;5056002;28;20451;-69
2023/08/02 07:03:47;;;;;;;1.80;1.70;;;15.90;99.90;;;;;;5056379;28;20178;-70
2023/08/02 07:06:14;;;;;;;2.20;2.00;;;15.90;99.90;;;;;;5055850;28;20405;-70
2023/08/02 07:08:41;;;;;;;1.73;1.47;;;16.00;99.90;;;;;;5055877;28;20481;-70
2023/08/02 07:11:07;;;;;;;1.10;1.07;;;16.00;99.90;;;;;;5054687;28;20801;-69
2023/08/02 07:13:36;;;;;;;1.73;1.53;;;16.00;99.90;;;;;;5055652;28;20419;-70
2023/08/02 07:16:02;;;;;;;1.33;1.17;;;15.90;99.90;;;;;;5055732;28;20822;-69
2023/08/02 07:18:28;;;;;;;0.60;0.60;;;15.90;99.90;;;;;;5055702;28;20412;-70
2023/08/02 07:20:53;;;;;;;2.10;1.83;;;15.90;99.90;;;;;;5055206;28;20487;-69
2023/08/02 07:23:20;;;;;;;0.83;0.80;;;16.10;99.90;;;;;;5055549;28;20501;-69
2023/08/02 07:25:45;;;;;;;1.70;1.57;;;16.20;99.90;;;;;;5054901;28;20170;-70
2023/08/02 07:28:11;;;;;;;1.53;1.53;;;16.40;99.90;;;;;;5055676;28;20396;-70
2023/08/02 07:30:37;;;;;;;1.03;1.03;;;16.50;99.90;;;;;;5054097;28;20178;-70
2023/08/02 07:33:02;;;;;;;0.67;0.67;;;16.60;99.90;;;;;;5054741;28;20462;-68
2023/08/02 07:35:28;;;;;;;0.70;0.60;;;17.20;99.90;;;;;;5053654;28;20175;-70
2023/08/02 07:37:53;;;;;;;1.37;1.27;;;16.40;99.90;;;;;;5052538;28;20170;-69
2023/08/02 07:40:19;;;;;;;1.53;1.43;;;16.30;99.90;;;;;;5054260;28;20194;-70
2023/08/02 07:42:44;;;;;;;3.50;2.20;;;16.30;99.90;;;;;;5055412;28;20200;-70
2023/08/02 07:45:11;;;;;;;0.67;0.67;;;16.30;99.90;;;;;;5055625;28;20174;-70
2023/08/02 07:47:37;;;;;;;1.80;1.40;;;16.40;99.90;;;;;;5055488;28;20174;-69
2023/08/02 07:50:04;;;;;;;1.27;1.23;;;16.50;99.90;;;;;;5055179;28;20468;-70
2023/08/02 07:52:30;;;;;;;1.17;1.10;;;16.50;99.90;;;;;;5054882;28;20396;-69
2023/08/02 07:54:56;;;;;;;2.17;1.80;;;16.70;99.90;;;;;;5055170;28;20454;-70
2023/08/02 07:57:23;;;;;;;0.77;0.73;;;16.90;99.90;;;;;;5055316;28;20645;-69
2023/08/02 07:59:49;;;;;;;0.40;0.40;;;16.90;99.90;;;;;;5055272;28;20936;-70
2023/08/02 08:02:15;;;;;;;0.87;0.70;;;17.00;99.90;;;;;;5054677;28;20409;-70
2023/08/02 08:04:42;;;;;;;1.50;1.40;;;17.00;99.90;;;;;;5054945;28;20241;-70
2023/08/02 08:07:07;;;;;;;0.50;0.50;;;17.20;99.90;;;;;;5055000;28;20400;-71
2023/08/02 08:09:34;;;;;;;2.77;2.00;;;17.40;99.90;;;;;;5054629;28;20206;-69
2023/08/02 08:12:05;;;;;;;1.50;1.10;;;17.50;99.90;;;;;;5054478;28;20261;-69
2023/08/02 08:14:32;;;;;;;0.53;0.53;;;17.80;99.90;;;;;;5055051;28;20401;-71
2023/08/02 08:16:58;;;;;;;1.27;1.17;;;18.10;99.90;;;;;;5054469;28;20954;-69
2023/08/02 08:19:26;;;;;;;2.40;1.83;;;18.50;99.90;;;;;;5054511;28;20908;-71
2023/08/02 08:21:52;;;;;;;0.77;0.57;;;18.90;99.90;;;;;;5054567;28;20880;-70
2023/08/02 08:24:17;;;;;;;2.03;1.93;;;19.40;99.90;;;;;;5054673;28;20412;-72
2023/08/02 08:26:43;;;;;;;1.80;0.73;;;19.90;99.90;;;;;;5054723;28;20407;-72
2023/08/02 08:29:09;;;;;;;1.20;1.10;;;20.30;99.90;;;;;;5052121;28;20205;-70
2023/08/02 08:31:35;;;;;;;0.80;0.50;;;20.30;99.90;;;;;;5051977;28;20543;-71
2023/08/02 08:34:00;;;;;;;0.70;0.70;;;20.20;99.90;;;;;;5052110;28;20202;-70
2023/08/02 08:36:28;;;;;;;0.30;0.30;;;19.90;99.90;;;;;;5052241;28;20416;-70
2023/08/02 08:38:54;;;;;;;1.10;1.10;;;19.90;99.90;;;;;;5051948;28;20656;-72
2023/08/02 08:41:20;;;;;;;0.70;0.70;;;20.00;99.90;;;;;;5051656;28;20517;-70
2023/08/02 08:43:45;;;;;;;1.77;0.80;;;20.20;99.90;;;;;;5052872;28;20228;-71
2023/08/02 08:46:15;;;;;;;1.37;1.27;;;20.50;99.90;;;;;;5053848;28;20272;-71
2023/08/02 08:48:41;;;;;;;1.70;0.87;;;20.60;99.90;;;;;;5053557;28;20232;-71
2023/08/02 08:51:10;;;;;;;1.87;1.00;;;20.70;99.90;;;;;;5053477;28;20446;-71
2023/08/02 08:53:36;;;;;;;1.07;0.97;;;20.60;99.90;;;;;;5052619;28;20872;-70
2023/08/02 08:56:04;;;;;;;1.00;0.63;;;20.40;99.90;;;;;;5053892;28;20402;-72
2023/08/02 08:58:32;;;;;;;0.33;0.33;;;20.40;99.90;;;;;;5053773;28;20412;-72
2023/08/02 09:00:58;;;;;;;0.80;0.53;;;20.50;99.90;;;;;;5053414;28;20435;-71
2023/08/02 09:03:24;;;;;;;0.60;0.50;;;20.80;99.90;;;;;;5053616;28;20412;-71
2023/08/02 09:05:50;;;;;;;0.50;0.50;;;21.00;99.90;;;;;;5053577;28;20185;-70
2023/08/02 09:08:16;;;;;;;0.80;0.67;;;21.30;99.90;;;;;;5053543;28;20443;-71
2023/08/02 09:10:42;;;;;;;1.00;0.90;;;21.80;99.90;;;;;;5053401;28;20875;-72
2023/08/02 09:13:24;;;;;;;0.83;0.83;;;22.30;99.90;;;;;;5053395;28;20253;-70
2023/08/02 09:16:04;;;;;;;0.70;0.70;;;22.90;98.90;;;;;;5053638;28;20556;-72
2023/08/02 09:18:36;;;;;;;0.70;0.70;;;23.90;98.50;;;;;;5053563;28;20408;-72
2023/08/02 09:21:02;;;;;;;0.80;0.70;;;24.60;96.90;;;;;;5053119;28;20428;-72
2023/08/02 09:23:28;;;;;;;1.27;1.13;;;24.90;96.60;;;;;;5053371;28;20400;-71
2023/08/02 09:26:11;;;;;;;0.40;0.40;;;25.00;95.40;;;;;;5053534;28;20382;-72
2023/08/02 09:28:37;;;;;;;0.90;0.80;;;25.30;94.60;;;;;;5053478;28;20242;-72
2023/08/02 09:31:16;;;;;;;0.80;0.80;;;25.50;93.80;;;;;;5053089;28;20435;-71
2023/08/02 09:33:50;;;;;;;1.13;0.80;;;25.70;94.30;;;;;;5053356;28;20393;-70
2023/08/02 09:36:30;;;;;;;1.33;1.00;;;25.70;92.90;;;;;;5053407;28;20484;-72
2023/08/02 09:39:04;;;;;;;0.97;0.97;;;26.00;92.40;;;;;;5053232;28;20423;-72
2023/08/02 09:41:31;;;;;;;0.90;0.80;;;26.30;92.00;;;;;;5053090;28;20387;-72
2023/08/02 09:43:57;;;;;;;0.77;0.60;;;26.70;91.00;;;;;;5053255;28;20405;-72
2023/08/02 09:46:30;;;;;;;0.70;0.70;;;26.80;91.70;;;;;;5053224;28;20952;-71
2023/08/02 09:49:00;;;;;;;0.50;0.50;;;27.40;90.80;;;;;;5053107;28;20448;-71
2023/08/02 09:51:42;;;;;;;0.83;0.83;;;27.90;90.40;;;;;;5052846;28;20775;-71
2023/08/02 09:54:09;;;;;;;0.80;0.80;;;28.00;91.00;;;;;;5053028;28;20413;-72
2023/08/02 09:56:36;;;;;;;1.30;0.77;;;28.20;88.30;;;;;;5053151;28;20495;-71
2023/08/02 09:59:03;;;;;;;1.00;1.00;;;28.10;85.90;;;;;;5053108;28;20397;-71
2023/08/02 10:01:30;;;;;;;0.73;0.73;;;28.10;86.70;;;;;;5054399;28;20420;-72
2023/08/02 10:03:58;;;;;;;1.40;1.30;;;28.00;88.20;;;;;;5056951;28;20409;-72
2023/08/02 10:06:38;;;;;;;2.50;0.80;;;27.80;89.10;;;;;;5057067;28;20484;-71
2023/08/02 10:09:07;;;;;;;0.53;0.53;;;27.60;97.50;;;;;;5056911;28;20850;-71
2023/08/02 10:11:43;;;;;;;1.00;0.87;;;27.50;88.20;;;;;;5056689;28;20409;-72
2023/08/02 10:14:09;;;;;;;0.90;0.90;;;27.30;90.20;;;;;;5055621;28;20447;-72
2023/08/02 10:16:37;;;;;;;2.53;0.93;;;26.90;90.60;;;;;;5056718;28;20413;-72
2023/08/02 10:19:03;;;;;;;0.97;0.70;;;26.10;99.90;;;;;;5056758;28;20440;-71
2023/08/02 10:21:33;;;;;;;1.03;0.93;;;26.10;91.60;;;;;;5056533;28;20411;-72
2023/08/02 10:24:00;;;;;;;1.37;0.70;;;25.90;91.00;;;;;;5056660;28;20546;-71
2023/08/02 10:26:29;;;;;;;5.40;1.07;;;25.70;90.10;;;;;;5056623;28;20423;-70
2023/08/02 10:28:57;;;;;;;2.40;1.17;;;25.50;90.80;;;;;;5056461;28;20429;-72
2023/08/02 10:31:23;;;;;;;0.60;0.60;;;25.20;92.40;;;;;;5056245;28;20777;-71
2023/08/02 10:33:49;;;;;;;1.20;0.93;;;25.10;91.70;;;;;;5056582;28;20461;-71
2023/08/02 10:36:14;;;;;;;1.70;1.00;;;25.00;93.30;;;;;;5056458;28;20749;-71
2023/08/02 10:38:41;;;;;;;1.27;0.90;;;25.10;92.10;;;;;;5056336;28;20261;-72
2023/08/02 10:41:09;;;;;;;1.43;1.33;;;25.20;91.70;;;;;;5056257;28;20231;-72
2023/08/02 10:43:54;;;;;;;0.83;0.83;;;25.50;91.10;;;;;;5056353;28;20503;-72
2023/08/02 10:46:25;;;;;;;0.50;0.50;;;25.80;92.00;;;;;;5056104;28;20945;-72
2023/08/02 10:48:51;;;;;;;1.10;1.00;;;26.00;91.00;;;;;;5055889;28;20476;-71
2023/08/02 10:51:37;;;;;;;0.70;0.70;;;25.70;92.10;;;;;;5055916;28;20913;-71
2023/08/02 10:54:16;;;;;;;0.70;0.70;;;25.20;93.10;;;;;;5056321;28;20409;-71
2023/08/02 10:56:58;;;;;;;0.90;0.57;;;25.10;92.50;;;;;;5056224;28;20375;-72
2023/08/02 10:59:24;;;;;;;1.90;1.10;;;24.90;92.70;;;;;;5056030;28;20395;-71
2023/08/02 11:02:07;;;;;;;1.13;1.10;;;25.10;94.50;;;;;;5055744;28;20748;-72
2023/08/02 11:04:37;;;;;;;0.60;0.53;;;25.30;96.10;;;;;;5055979;28;20182;-71
2023/08/02 11:07:16;;;;;;;1.00;0.90;;;25.50;92.30;;;;;;5054671;28;20896;-72
2023/08/02 11:09:42;;;;;;;1.47;1.07;;;26.10;93.00;;;;;;5055584;28;20471;-72
2023/08/02 11:12:12;;;;;;;1.57;1.47;;;26.70;94.80;;;;;;5055509;28;20375;-71
2023/08/02 11:14:38;;;;;;;1.00;0.90;;;27.30;93.40;;;;;;5055880;28;20401;-72
2023/08/02 11:17:04;;;;;;;0.93;0.80;;;27.50;90.30;;;;;;5055702;28;20400;-72
2023/08/02 11:19:31;;;;;;;0.70;0.63;;;27.50;92.10;;;;;;5055573;28;20436;-71
2023/08/02 11:21:59;;;;;;;1.70;1.20;;;27.30;90.50;;;;;;5055394;28;20474;-72
2023/08/02 11:24:25;;;;;;;1.80;0.87;;;;;;;;;;5055379;28;20786;-71
2023/08/02 11:26:58;;;;;;;1.47;1.20;;;26.90;89.20;;;;;;5055484;28;20409;-70
2023/08/02 11:29:25;;;;;;;2.00;1.37;;;26.90;90.20;;;;;;5055490;28;20452;-72
2023/08/02 11:31:53;;;;;;;0.80;0.80;;;27.10;90.30;;;;;;5055157;28;20812;-71
2023/08/02 11:34:19;;;;;;;1.17;0.73;;;27.20;89.70;;;;;;5055414;28;20413;-71
2023/08/02 11:36:46;;;;;;;1.87;1.13;;;26.70;89.70;;;;;;5055362;28;20371;-72
2023/08/02 11:39:16;;;;;;;1.03;0.93;;;26.50;99.90;;;;;;5055261;28;20384;-72
2023/08/02 11:41:41;;;;;;;1.33;1.10;;;26.60;90.40;;;;;;5055191;28;20397;-71
2023/08/02 11:44:18;;;;;;;1.50;0.80;;;26.70;91.20;;;;;;5055215;28;20383;-72
2023/08/02 11:46:51;;;;;;;0.90;0.80;;;26.30;90.50;;;;;;5055234;28;20646;-72
2023/08/02 11:49:17;;;;;;;0.87;0.77;;;26.70;99.90;;;;;;5054897;28;20951;-73
2023/08/02 11:51:43;;;;;;;0.83;0.70;;;26.60;91.30;;;;;;5054805;28;20407;-71
2023/08/02 11:54:09;;;;;;;0.80;0.50;;;26.50;91.50;;;;;;5055045;28;20169;-71
2023/08/02 11:56:35;;;;;;;1.40;0.77;;;26.50;91.20;;;;;;5055125;28;20626;-72
2023/08/02 11:59:01;;;;;;;1.20;0.70;;;26.40;90.40;;;;;;5054961;28;20408;-72
2023/08/02 12:01:27;;;;;;;1.03;0.93;;;26.30;93.00;;;;;;5054568;28;20435;-72
2023/08/02 12:04:01;;;;;;;1.10;1.00;;;26.10;92.50;;;;;;5054732;28;20387;-72
2023/08/02 12:06:44;;;;;;;1.53;1.20;;;26.00;91.60;;;;;;5054720;28;20170;-72
2023/08/02 12:09:09;;;;;;;0.90;0.80;;;26.00;99.90;;;;;;5054763;28;20445;-73
2023/08/02 12:11:35;;;;;;;2.00;0.90;;;26.30;91.60;;;;;;5054348;28;20413;-71
2023/08/02 12:14:02;;;;;;;2.10;1.70;;;26.50;90.70;;;;;;5054760;28;20162;-72
2023/08/02 12:16:41;;;;;;;0.77;0.77;;;26.60;90.90;;;;;;5054653;28;20553;-72
2023/08/02 12:19:08;;;;;;;0.70;0.60;;;26.10;99.90;;;;;;5054635;28;20408;-73
2023/08/02 12:21:34;;;;;;;1.50;0.73;;;26.40;92.00;;;;;;5054247;28;20466;-73
2023/08/02 12:24:10;;;;;;;0.60;0.60;;;26.60;90.10;;;;;;5053849;28;20416;-71
2023/08/02 12:26:36;;;;;;;0.60;0.60;;;26.70;88.60;;;;;;5054584;28;20465;-71
2023/08/02 12:29:03;;;;;;;1.43;0.50;;;26.80;90.80;;;;;;5054538;28;20452;-72
2023/08/02 12:31:49;;;;;;;1.37;0.60;;;26.90;90.00;;;;;;5054288;28;20216;-71
2023/08/02 12:34:14;;;;;;;0.70;0.60;;;26.90;91.40;;;;;;5054019;28;20432;-72
2023/08/02 12:36:40;;;;;;;0.50;0.50;;;27.00;90.70;;;;;;5054279;28;20836;-72
2023/08/02 12:39:06;;;;;;;0.73;0.57;;;26.20;99.90;;;;;;5054120;28;20190;-71
2023/08/02 12:41:31;;;;;;;1.70;1.10;;;26.40;90.80;;;;;;5053905;28;20181;-72
2023/08/02 12:43:57;;;;;;;2.13;0.60;;;26.40;90.10;;;;;;5054046;28;20178;-72
2023/08/02 12:46:23;;;;;;;0.50;0.50;;;26.30;88.60;;;;;;5053991;28;20167;-71
2023/08/02 12:48:50;;;;;;;1.67;1.57;;;26.20;89.80;;;;;;5053949;28;20449;-72